sensor_id;sensor_type;location;lat;lon;timestamp;temperature;humidity
24522;DHT22;12680;57.804;12.190;2023-07-28T00:01:35;11.40;97.20
24522;DHT22;12680;57.804;12.190;2023-07-28T00:04:02;11.40;97.20
24522;DHT22;12680;57.804;12.190;2023-07-28T00:06:33;11.30;97.10
24522;DHT22;12680;57.804;12.190;2023-07-28T00:09:01;11.30;97.20
24522;DHT22;12680;57.804;12.190;2023-07-28T00:11:28;11.30;97.30
24522;DHT22;12680;57.804;12.190;2023-07-28T00:13:55;11.30;97.40
24522;DHT22;12680;57.804;12.190;2023-07-28T00:16:21;12.90;97.80
24522;DHT22;12680;57.804;12.190;2023-07-28T00:18:48;11.30;97.40
24522;DHT22;12680;57.804;12.190;2023-07-28T00:21:15;11.30;97.40
24522;DHT22;12680;57.804;12.190;2023-07-28T00:23:41;11.20;97.40
24522;DHT22;12680;57.804;12.190;2023-07-28T00:26:08;12.70;97.90
24522;DHT22;12680;57.804;12.190;2023-07-28T00:28:35;11.20;97.50
24522;DHT22;12680;57.804;12.190;2023-07-28T00:31:01;11.20;97.50
24522;DHT22;12680;57.804;12.190;2023-07-28T00:33:28;11.20;97.50
24522;DHT22;12680;57.804;12.190;2023-07-28T00:35:55;11.10;97.50
24522;DHT22;12680;57.804;12.190;2023-07-28T00:38:22;11.00;97.50
24522;DHT22;12680;57.804;12.190;2023-07-28T00:40:48;11.00;97.60
24522;DHT22;12680;57.804;12.190;2023-07-28T00:43:15;11.00;97.60
24522;DHT22;12680;57.804;12.190;2023-07-28T00:45:41;11.00;97.60
24522;DHT22;12680;57.804;12.190;2023-07-28T00:48:11;11.00;97.70
24522;DHT22;12680;57.804;12.190;2023-07-28T00:50:41;11.00;97.70
24522;DHT22;12680;57.804;12.190;2023-07-28T00:53:08;11.00;97.70
24522;DHT22;12680;57.804;12.190;2023-07-28T00:55:35;10.90;97.70
24522;DHT22;12680;57.804;12.190;2023-07-28T00:58:02;10.90;97.70
24522;DHT22;12680;57.804;12.190;2023-07-28T01:00:29;10.90;97.70
24522;DHT22;12680;57.804;12.190;2023-07-28T01:02:56;10.90;97.70
24522;DHT22;12680;57.804;12.190;2023-07-28T01:10:32;10.80;97.90
24522;DHT22;12680;57.804;12.190;2023-07-28T01:12:59;10.80;97.90
24522;DHT22;12680;57.804;12.190;2023-07-28T01:15:25;10.80;97.90
24522;DHT22;12680;57.804;12.190;2023-07-28T01:17:52;10.70;97.90
24522;DHT22;12680;57.804;12.190;2023-07-28T01:20:19;10.70;97.80
24522;DHT22;12680;57.804;12.190;2023-07-28T01:25:39;10.60;98.00
24522;DHT22;12680;57.804;12.190;2023-07-28T01:28:08;10.60;98.00
24522;DHT22;12680;57.804;12.190;2023-07-28T01:30:35;10.50;98.00
24522;DHT22;12680;57.804;12.190;2023-07-28T01:33:01;10.50;98.10
24522;DHT22;12680;57.804;12.190;2023-07-28T01:35:32;10.50;98.10
24522;DHT22;12680;57.804;12.190;2023-07-28T01:37:58;12.10;98.60
24522;DHT22;12680;57.804;12.190;2023-07-28T01:40:25;10.50;98.20
24522;DHT22;12680;57.804;12.190;2023-07-28T01:42:52;10.50;98.10
24522;DHT22;12680;57.804;12.190;2023-07-28T01:45:19;10.90;98.20
24522;DHT22;12680;57.804;12.190;2023-07-28T01:47:46;10.40;98.00
24522;DHT22;12680;57.804;12.190;2023-07-28T01:50:13;10.40;98.20
24522;DHT22;12680;57.804;12.190;2023-07-28T01:52:40;10.30;98.10
24522;DHT22;12680;57.804;12.190;2023-07-28T01:55:07;10.30;98.10
24522;DHT22;12680;57.804;12.190;2023-07-28T01:57:33;10.30;98.20
24522;DHT22;12680;57.804;12.190;2023-07-28T02:00:01;10.20;98.10
24522;DHT22;12680;57.804;12.190;2023-07-28T02:02:29;10.20;98.10
24522;DHT22;12680;57.804;12.190;2023-07-28T02:04:56;10.10;98.20
24522;DHT22;12680;57.804;12.190;2023-07-28T02:07:23;10.10;98.20
24522;DHT22;12680;57.804;12.190;2023-07-28T02:09:49;10.10;98.20
24522;DHT22;12680;57.804;12.190;2023-07-28T02:12:16;10.10;98.40
24522;DHT22;12680;57.804;12.190;2023-07-28T02:14:43;10.10;98.40
24522;DHT22;12680;57.804;12.190;2023-07-28T02:17:09;10.10;98.40
24522;DHT22;12680;57.804;12.190;2023-07-28T02:19:36;10.00;98.40
24522;DHT22;12680;57.804;12.190;2023-07-28T02:22:03;10.00;98.50
24522;DHT22;12680;57.804;12.190;2023-07-28T02:24:30;10.00;98.60
24522;DHT22;12680;57.804;12.190;2023-07-28T02:26:57;10.00;98.60
24522;DHT22;12680;57.804;12.190;2023-07-28T02:29:23;10.00;98.50
24522;DHT22;12680;57.804;12.190;2023-07-28T02:31:50;9.90;98.60
24522;DHT22;12680;57.804;12.190;2023-07-28T02:34:17;9.90;98.60
24522;DHT22;12680;57.804;12.190;2023-07-28T02:36:43;9.90;98.60
24522;DHT22;12680;57.804;12.190;2023-07-28T02:39:10;9.90;98.70
24522;DHT22;12680;57.804;12.190;2023-07-28T02:41:37;9.90;98.70
24522;DHT22;12680;57.804;12.190;2023-07-28T02:44:03;10.70;98.90
24522;DHT22;12680;57.804;12.190;2023-07-28T02:46:30;9.80;98.70
24522;DHT22;12680;57.804;12.190;2023-07-28T02:48:57;9.80;98.70
24522;DHT22;12680;57.804;12.190;2023-07-28T02:51:23;9.80;98.80
24522;DHT22;12680;57.804;12.190;2023-07-28T02:53:50;9.80;98.80
24522;DHT22;12680;57.804;12.190;2023-07-28T02:56:16;9.70;98.80
24522;DHT22;12680;57.804;12.190;2023-07-28T02:58:43;9.80;98.90
24522;DHT22;12680;57.804;12.190;2023-07-28T03:01:10;9.80;98.90
24522;DHT22;12680;57.804;12.190;2023-07-28T03:03:37;9.80;98.90
24522;DHT22;12680;57.804;12.190;2023-07-28T03:06:04;9.70;98.90
24522;DHT22;12680;57.804;12.190;2023-07-28T03:08:30;9.80;99.00
24522;DHT22;12680;57.804;12.190;2023-07-28T03:10:57;9.80;99.10
24522;DHT22;12680;57.804;12.190;2023-07-28T03:13:24;9.80;99.00
24522;DHT22;12680;57.804;12.190;2023-07-28T03:15:51;9.80;98.90
24522;DHT22;12680;57.804;12.190;2023-07-28T03:18:18;9.80;99.30
24522;DHT22;12680;57.804;12.190;2023-07-28T03:20:45;9.80;99.00
24522;DHT22;12680;57.804;12.190;2023-07-28T03:23:12;9.80;99.10
24522;DHT22;12680;57.804;12.190;2023-07-28T03:25:39;9.80;99.10
24522;DHT22;12680;57.804;12.190;2023-07-28T03:28:05;9.80;99.10
24522;DHT22;12680;57.804;12.190;2023-07-28T03:30:32;9.80;99.20
24522;DHT22;12680;57.804;12.190;2023-07-28T03:32:59;9.90;99.10
24522;DHT22;12680;57.804;12.190;2023-07-28T03:35:26;9.90;99.10
24522;DHT22;12680;57.804;12.190;2023-07-28T03:37:53;9.90;99.10
24522;DHT22;12680;57.804;12.190;2023-07-28T03:40:19;9.90;99.20
24522;DHT22;12680;57.804;12.190;2023-07-28T03:42:46;10.00;99.20
24522;DHT22;12680;57.804;12.190;2023-07-28T03:45:13;10.00;99.20
24522;DHT22;12680;57.804;12.190;2023-07-28T03:47:39;10.00;99.00
24522;DHT22;12680;57.804;12.190;2023-07-28T03:50:06;10.00;99.10
24522;DHT22;12680;57.804;12.190;2023-07-28T03:52:33;10.00;99.10
24522;DHT22;12680;57.804;12.190;2023-07-28T03:55:00;10.10;99.20
24522;DHT22;12680;57.804;12.190;2023-07-28T03:57:26;10.10;99.10
24522;DHT22;12680;57.804;12.190;2023-07-28T03:59:53;10.20;99.20
24522;DHT22;12680;57.804;12.190;2023-07-28T04:02:20;10.30;99.20
24522;DHT22;12680;57.804;12.190;2023-07-28T04:04:47;10.40;99.20
24522;DHT22;12680;57.804;12.190;2023-07-28T04:07:19;10.40;99.00
24522;DHT22;12680;57.804;12.190;2023-07-28T04:09:46;10.30;99.00
24522;DHT22;12680;57.804;12.190;2023-07-28T04:12:13;10.30;99.00
24522;DHT22;12680;57.804;12.190;2023-07-28T04:14:39;10.30;99.10
24522;DHT22;12680;57.804;12.190;2023-07-28T04:17:07;10.30;99.10
24522;DHT22;12680;57.804;12.190;2023-07-28T04:19:34;10.30;99.00
24522;DHT22;12680;57.804;12.190;2023-07-28T04:22:01;10.30;99.10
24522;DHT22;12680;57.804;12.190;2023-07-28T04:24:27;10.30;99.10
24522;DHT22;12680;57.804;12.190;2023-07-28T04:26:54;10.30;99.20
24522;DHT22;12680;57.804;12.190;2023-07-28T04:29:21;10.40;99.60
24522;DHT22;12680;57.804;12.190;2023-07-28T04:31:47;10.40;99.30
24522;DHT22;12680;57.804;12.190;2023-07-28T04:34:14;10.50;99.20
24522;DHT22;12680;57.804;12.190;2023-07-28T04:36:41;10.50;99.20
24522;DHT22;12680;57.804;12.190;2023-07-28T04:39:07;10.50;99.20
24522;DHT22;12680;57.804;12.190;2023-07-28T04:41:34;10.60;99.30
24522;DHT22;12680;57.804;12.190;2023-07-28T04:44:01;12.90;99.80
24522;DHT22;12680;57.804;12.190;2023-07-28T04:46:28;10.60;99.10
24522;DHT22;12680;57.804;12.190;2023-07-28T04:48:54;10.60;99.10
24522;DHT22;12680;57.804;12.190;2023-07-28T04:51:22;10.60;99.20
24522;DHT22;12680;57.804;12.190;2023-07-28T04:53:48;10.60;99.30
24522;DHT22;12680;57.804;12.190;2023-07-28T04:56:15;10.70;99.30
24522;DHT22;12680;57.804;12.190;2023-07-28T04:58:42;10.70;99.30
24522;DHT22;12680;57.804;12.190;2023-07-28T05:01:08;10.80;99.30
24522;DHT22;12680;57.804;12.190;2023-07-28T05:03:35;10.90;99.40
24522;DHT22;12680;57.804;12.190;2023-07-28T05:06:03;11.00;99.30
24522;DHT22;12680;57.804;12.190;2023-07-28T05:08:29;11.00;99.30
24522;DHT22;12680;57.804;12.190;2023-07-28T05:10:56;11.10;99.30
24522;DHT22;12680;57.804;12.190;2023-07-28T05:13:23;11.20;99.30
24522;DHT22;12680;57.804;12.190;2023-07-28T05:15:49;11.20;99.30
24522;DHT22;12680;57.804;12.190;2023-07-28T05:18:16;11.30;99.30
24522;DHT22;12680;57.804;12.190;2023-07-28T05:20:43;11.40;99.30
24522;DHT22;12680;57.804;12.190;2023-07-28T05:23:09;11.40;99.30
24522;DHT22;12680;57.804;12.190;2023-07-28T05:25:36;11.50;99.30
24522;DHT22;12680;57.804;12.190;2023-07-28T05:28:03;11.60;99.40
24522;DHT22;12680;57.804;12.190;2023-07-28T05:30:29;11.70;99.40
24522;DHT22;12680;57.804;12.190;2023-07-28T05:32:57;11.80;99.40
24522;DHT22;12680;57.804;12.190;2023-07-28T05:35:24;11.90;99.40
24522;DHT22;12680;57.804;12.190;2023-07-28T05:37:51;12.10;99.50
24522;DHT22;12680;57.804;12.190;2023-07-28T05:40:17;12.20;99.50
24522;DHT22;12680;57.804;12.190;2023-07-28T05:42:44;10.60;98.90
24522;DHT22;12680;57.804;12.190;2023-07-28T05:45:11;15.00;99.90
24522;DHT22;12680;57.804;12.190;2023-07-28T05:47:37;12.60;99.30
24522;DHT22;12680;57.804;12.190;2023-07-28T05:50:04;12.70;99.30
24522;DHT22;12680;57.804;12.190;2023-07-28T05:52:32;12.80;99.60
24522;DHT22;12680;57.804;12.190;2023-07-28T05:54:59;12.90;99.30
24522;DHT22;12680;57.804;12.190;2023-07-28T05:57:25;13.00;99.30
24522;DHT22;12680;57.804;12.190;2023-07-28T05:59:52;13.10;99.40
24522;DHT22;12680;57.804;12.190;2023-07-28T06:02:19;13.20;99.50
24522;DHT22;12680;57.804;12.190;2023-07-28T06:04:45;13.40;99.50
24522;DHT22;12680;57.804;12.190;2023-07-28T06:07:12;13.50;99.60
24522;DHT22;12680;57.804;12.190;2023-07-28T06:09:39;13.60;99.60
24522;DHT22;12680;57.804;12.190;2023-07-28T06:12:06;13.70;99.60
24522;DHT22;12680;57.804;12.190;2023-07-28T06:14:33;13.90;99.70
24522;DHT22;12680;57.804;12.190;2023-07-28T06:16:59;14.10;99.70
24522;DHT22;12680;57.804;12.190;2023-07-28T06:19:26;14.20;99.70
24522;DHT22;12680;57.804;12.190;2023-07-28T06:21:53;15.50;99.90
24522;DHT22;12680;57.804;12.190;2023-07-28T06:24:19;14.60;99.70
24522;DHT22;12680;57.804;12.190;2023-07-28T06:26:46;17.30;99.90
24522;DHT22;12680;57.804;12.190;2023-07-28T06:29:13;14.90;99.70
24522;DHT22;12680;57.804;12.190;2023-07-28T06:31:40;15.10;99.70
24522;DHT22;12680;57.804;12.190;2023-07-28T06:34:07;15.30;99.80
24522;DHT22;12680;57.804;12.190;2023-07-28T06:36:34;15.40;99.70
24522;DHT22;12680;57.804;12.190;2023-07-28T06:39:00;15.60;99.70
24522;DHT22;12680;57.804;12.190;2023-07-28T06:41:27;15.70;99.70
24522;DHT22;12680;57.804;12.190;2023-07-28T06:43:54;15.80;99.70
24522;DHT22;12680;57.804;12.190;2023-07-28T06:46:20;16.60;99.90
24522;DHT22;12680;57.804;12.190;2023-07-28T06:48:47;16.10;99.70
24522;DHT22;12680;57.804;12.190;2023-07-28T06:51:14;16.20;99.70
24522;DHT22;12680;57.804;12.190;2023-07-28T06:53:40;17.00;99.90
24522;DHT22;12680;57.804;12.190;2023-07-28T06:56:07;17.90;99.90
24522;DHT22;12680;57.804;12.190;2023-07-28T06:58:34;16.80;99.30
24522;DHT22;12680;57.804;12.190;2023-07-28T07:01:00;16.80;99.60
24522;DHT22;12680;57.804;12.190;2023-07-28T07:03:27;17.00;99.60
24522;DHT22;12680;57.804;12.190;2023-07-28T07:05:54;18.60;99.90
24522;DHT22;12680;57.804;12.190;2023-07-28T07:08:20;19.30;99.90
24522;DHT22;12680;57.804;12.190;2023-07-28T07:10:48;17.80;99.50
24522;DHT22;12680;57.804;12.190;2023-07-28T07:13:16;18.80;99.60
24522;DHT22;12680;57.804;12.190;2023-07-28T07:15:43;19.50;99.50
24522;DHT22;12680;57.804;12.190;2023-07-28T07:18:10;17.90;99.20
24522;DHT22;12680;57.804;12.190;2023-07-28T07:20:37;18.20;98.70
24522;DHT22;12680;57.804;12.190;2023-07-28T07:23:05;18.30;99.00
24522;DHT22;12680;57.804;12.190;2023-07-28T07:25:31;18.30;98.70
24522;DHT22;12680;57.804;12.190;2023-07-28T07:27:58;18.20;98.50
24522;DHT22;12680;57.804;12.190;2023-07-28T07:30:25;19.00;98.70
24522;DHT22;12680;57.804;12.190;2023-07-28T07:32:51;18.20;98.60
24522;DHT22;12680;57.804;12.190;2023-07-28T07:35:18;19.30;99.20
24522;DHT22;12680;57.804;12.190;2023-07-28T07:37:45;18.10;99.10
24522;DHT22;12680;57.804;12.190;2023-07-28T07:40:12;18.30;99.10
24522;DHT22;12680;57.804;12.190;2023-07-28T07:42:47;19.60;99.30
24522;DHT22;12680;57.804;12.190;2023-07-28T07:45:14;18.70;98.70
24522;DHT22;12680;57.804;12.190;2023-07-28T07:47:42;18.80;98.60
24522;DHT22;12680;57.804;12.190;2023-07-28T07:50:10;20.00;98.80
24522;DHT22;12680;57.804;12.190;2023-07-28T07:52:37;19.00;98.40
24522;DHT22;12680;57.804;12.190;2023-07-28T07:55:08;19.10;98.30
24522;DHT22;12680;57.804;12.190;2023-07-28T07:57:35;19.20;98.30
24522;DHT22;12680;57.804;12.190;2023-07-28T08:00:02;19.90;98.30
24522;DHT22;12680;57.804;12.190;2023-07-28T08:02:29;19.00;98.00
24522;DHT22;12680;57.804;12.190;2023-07-28T08:04:55;18.80;98.00
24522;DHT22;12680;57.804;12.190;2023-07-28T08:07:22;18.80;98.10
24522;DHT22;12680;57.804;12.190;2023-07-28T08:09:50;18.70;98.30
24522;DHT22;12680;57.804;12.190;2023-07-28T08:12:16;21.10;99.10
24522;DHT22;12680;57.804;12.190;2023-07-28T08:14:43;21.60;99.30
24522;DHT22;12680;57.804;12.190;2023-07-28T08:17:12;20.00;98.60
24522;DHT22;12680;57.804;12.190;2023-07-28T08:19:39;19.60;98.40
24522;DHT22;12680;57.804;12.190;2023-07-28T08:22:06;21.80;98.80
24522;DHT22;12680;57.804;12.190;2023-07-28T08:24:33;21.60;98.10
24522;DHT22;12680;57.804;12.190;2023-07-28T08:27:00;21.60;97.70
24522;DHT22;12680;57.804;12.190;2023-07-28T08:29:26;20.10;97.10
24522;DHT22;12680;57.804;12.190;2023-07-28T08:31:53;20.90;97.50
24522;DHT22;12680;57.804;12.190;2023-07-28T08:34:20;20.20;97.30
24522;DHT22;12680;57.804;12.190;2023-07-28T08:36:46;19.50;97.10
24522;DHT22;12680;57.804;12.190;2023-07-28T08:39:13;19.40;97.30
24522;DHT22;12680;57.804;12.190;2023-07-28T08:41:41;21.30;98.20
24522;DHT22;12680;57.804;12.190;2023-07-28T08:44:08;19.50;97.80
24522;DHT22;12680;57.804;12.190;2023-07-28T08:46:35;20.60;97.90
24522;DHT22;12680;57.804;12.190;2023-07-28T08:49:02;20.00;97.40
24522;DHT22;12680;57.804;12.190;2023-07-28T08:51:29;20.20;97.20
24522;DHT22;12680;57.804;12.190;2023-07-28T08:53:55;20.50;97.30
24522;DHT22;12680;57.804;12.190;2023-07-28T08:56:22;21.30;96.80
24522;DHT22;12680;57.804;12.190;2023-07-28T08:58:56;20.80;96.50
24522;DHT22;12680;57.804;12.190;2023-07-28T09:01:23;22.00;96.80
24522;DHT22;12680;57.804;12.190;2023-07-28T09:03:50;22.20;96.80
24522;DHT22;12680;57.804;12.190;2023-07-28T09:06:17;21.60;96.90
24522;DHT22;12680;57.804;12.190;2023-07-28T09:08:45;21.00;96.80
24522;DHT22;12680;57.804;12.190;2023-07-28T09:11:11;22.40;96.60
24522;DHT22;12680;57.804;12.190;2023-07-28T09:13:40;22.40;96.70
24522;DHT22;12680;57.804;12.190;2023-07-28T09:16:17;21.60;96.20
24522;DHT22;12680;57.804;12.190;2023-07-28T09:18:44;21.50;96.00
24522;DHT22;12680;57.804;12.190;2023-07-28T09:21:18;21.60;95.80
24522;DHT22;12680;57.804;12.190;2023-07-28T09:23:45;21.60;95.80
24522;DHT22;12680;57.804;12.190;2023-07-28T09:26:12;23.40;95.90
24522;DHT22;12680;57.804;12.190;2023-07-28T09:28:39;22.10;95.20
24522;DHT22;12680;57.804;12.190;2023-07-28T09:31:07;22.10;95.10
24522;DHT22;12680;57.804;12.190;2023-07-28T09:33:35;23.10;95.80
24522;DHT22;12680;57.804;12.190;2023-07-28T09:36:09;22.80;95.90
24522;DHT22;12680;57.804;12.190;2023-07-28T09:38:36;21.80;95.40
24522;DHT22;12680;57.804;12.190;2023-07-28T09:41:03;21.80;95.00
24522;DHT22;12680;57.804;12.190;2023-07-28T09:43:32;21.90;95.30
24522;DHT22;12680;57.804;12.190;2023-07-28T09:45:59;22.20;95.00
24522;DHT22;12680;57.804;12.190;2023-07-28T09:48:26;22.20;94.40
24522;DHT22;12680;57.804;12.190;2023-07-28T09:50:55;22.00;94.10
24522;DHT22;12680;57.804;12.190;2023-07-28T09:53:23;23.20;94.70
24522;DHT22;12680;57.804;12.190;2023-07-28T09:55:54;22.80;94.60
24522;DHT22;12680;57.804;12.190;2023-07-28T09:58:22;22.70;94.50
24522;DHT22;12680;57.804;12.190;2023-07-28T10:00:50;22.40;94.60
24522;DHT22;12680;57.804;12.190;2023-07-28T10:03:17;21.30;94.40
24522;DHT22;12680;57.804;12.190;2023-07-28T10:05:44;21.20;94.60
24522;DHT22;12680;57.804;12.190;2023-07-28T10:08:11;21.20;94.90
24522;DHT22;12680;57.804;12.190;2023-07-28T10:10:39;21.50;95.10
24522;DHT22;12680;57.804;12.190;2023-07-28T10:13:06;22.10;95.20
24522;DHT22;12680;57.804;12.190;2023-07-28T10:15:33;22.00;94.90
24522;DHT22;12680;57.804;12.190;2023-07-28T10:18:00;22.90;94.50
24522;DHT22;12680;57.804;12.190;2023-07-28T10:20:34;23.10;94.60
24522;DHT22;12680;57.804;12.190;2023-07-28T10:23:02;22.00;94.00
24522;DHT22;12680;57.804;12.190;2023-07-28T10:25:31;22.60;94.30
24522;DHT22;12680;57.804;12.190;2023-07-28T10:27:58;21.70;94.10
24522;DHT22;12680;57.804;12.190;2023-07-28T10:30:25;22.10;94.40
24522;DHT22;12680;57.804;12.190;2023-07-28T10:32:52;22.60;94.50
24522;DHT22;12680;57.804;12.190;2023-07-28T10:35:30;23.90;94.80
24522;DHT22;12680;57.804;12.190;2023-07-28T10:37:58;23.70;93.90
24522;DHT22;12680;57.804;12.190;2023-07-28T10:40:45;22.10;93.20
24522;DHT22;12680;57.804;12.190;2023-07-28T10:43:12;22.70;93.50
24522;DHT22;12680;57.804;12.190;2023-07-28T10:45:38;22.30;93.40
24522;DHT22;12680;57.804;12.190;2023-07-28T10:48:07;23.40;93.70
24522;DHT22;12680;57.804;12.190;2023-07-28T10:50:34;22.50;93.40
24522;DHT22;12680;57.804;12.190;2023-07-28T10:53:01;23.60;93.60
24522;DHT22;12680;57.804;12.190;2023-07-28T10:55:28;22.70;93.30
24522;DHT22;12680;57.804;12.190;2023-07-28T10:57:55;23.20;93.10
24522;DHT22;12680;57.804;12.190;2023-07-28T11:00:24;22.80;93.10
24522;DHT22;12680;57.804;12.190;2023-07-28T11:02:52;22.90;93.10
24522;DHT22;12680;57.804;12.190;2023-07-28T11:05:24;23.00;93.10
24522;DHT22;12680;57.804;12.190;2023-07-28T11:07:54;23.00;92.60
24522;DHT22;12680;57.804;12.190;2023-07-28T11:10:21;23.30;92.30
24522;DHT22;12680;57.804;12.190;2023-07-28T11:12:48;22.90;92.00
24522;DHT22;12680;57.804;12.190;2023-07-28T11:15:15;22.80;92.10
24522;DHT22;12680;57.804;12.190;2023-07-28T11:17:44;22.90;92.20
24522;DHT22;12680;57.804;12.190;2023-07-28T11:22:45;22.80;92.30
24522;DHT22;12680;57.804;12.190;2023-07-28T11:25:13;25.00;92.70
24522;DHT22;12680;57.804;12.190;2023-07-28T11:27:40;23.00;91.80
24522;DHT22;12680;57.804;12.190;2023-07-28T11:30:07;23.10;91.60
24522;DHT22;12680;57.804;12.190;2023-07-28T11:32:34;23.00;91.60
24522;DHT22;12680;57.804;12.190;2023-07-28T11:35:05;23.20;91.40
24522;DHT22;12680;57.804;12.190;2023-07-28T11:37:32;23.10;91.20
24522;DHT22;12680;57.804;12.190;2023-07-28T11:40:00;23.80;91.00
24522;DHT22;12680;57.804;12.190;2023-07-28T11:42:28;24.70;91.30
24522;DHT22;12680;57.804;12.190;2023-07-28T11:44:55;23.00;90.90
24522;DHT22;12680;57.804;12.190;2023-07-28T11:47:22;25.30;91.30
24522;DHT22;12680;57.804;12.190;2023-07-28T11:49:49;23.80;91.10
24522;DHT22;12680;57.804;12.190;2023-07-28T11:52:17;23.00;90.60
24522;DHT22;12680;57.804;12.190;2023-07-28T11:54:44;22.90;90.60
24522;DHT22;12680;57.804;12.190;2023-07-28T11:57:11;24.30;90.80
24522;DHT22;12680;57.804;12.190;2023-07-28T11:59:39;22.90;90.70
24522;DHT22;12680;57.804;12.190;2023-07-28T12:02:06;23.70;90.80
24522;DHT22;12680;57.804;12.190;2023-07-28T12:04:37;23.00;90.50
24522;DHT22;12680;57.804;12.190;2023-07-28T12:07:12;23.00;90.50
24522;DHT22;12680;57.804;12.190;2023-07-28T12:12:13;23.00;90.10
24522;DHT22;12680;57.804;12.190;2023-07-28T12:14:50;24.00;90.30
24522;DHT22;12680;57.804;12.190;2023-07-28T12:17:24;22.90;90.00
24522;DHT22;12680;57.804;12.190;2023-07-28T12:20:13;23.60;90.40
24522;DHT22;12680;57.804;12.190;2023-07-28T12:22:43;23.00;90.30
24522;DHT22;12680;57.804;12.190;2023-07-28T12:25:10;23.80;90.50
24522;DHT22;12680;57.804;12.190;2023-07-28T12:27:37;22.90;90.10
24522;DHT22;12680;57.804;12.190;2023-07-28T12:30:04;22.90;89.30
24522;DHT22;12680;57.804;12.190;2023-07-28T12:32:31;22.70;89.60
24522;DHT22;12680;57.804;12.190;2023-07-28T12:35:02;23.40;90.30
24522;DHT22;12680;57.804;12.190;2023-07-28T12:37:33;22.80;90.10
24522;DHT22;12680;57.804;12.190;2023-07-28T12:40:02;23.00;89.80
24522;DHT22;12680;57.804;12.190;2023-07-28T12:42:31;22.80;90.00
24522;DHT22;12680;57.804;12.190;2023-07-28T12:45:00;24.50;90.50
24522;DHT22;12680;57.804;12.190;2023-07-28T12:47:30;22.90;90.10
24522;DHT22;12680;57.804;12.190;2023-07-28T12:50:03;23.30;90.10
24522;DHT22;12680;57.804;12.190;2023-07-28T12:52:30;22.90;89.40
24522;DHT22;12680;57.804;12.190;2023-07-28T12:55:17;22.80;88.90
24522;DHT22;12680;57.804;12.190;2023-07-28T12:57:44;22.70;88.30
24522;DHT22;12680;57.804;12.190;2023-07-28T13:00:11;23.10;88.60
24522;DHT22;12680;57.804;12.190;2023-07-28T13:02:45;22.40;88.20
24522;DHT22;12680;57.804;12.190;2023-07-28T13:05:13;22.40;88.70
24522;DHT22;12680;57.804;12.190;2023-07-28T13:07:40;23.30;89.60
24522;DHT22;12680;57.804;12.190;2023-07-28T13:10:10;23.70;90.00
24522;DHT22;12680;57.804;12.190;2023-07-28T13:12:57;24.60;89.90
24522;DHT22;12680;57.804;12.190;2023-07-28T13:15:24;22.50;88.20
24522;DHT22;12680;57.804;12.190;2023-07-28T13:17:51;22.60;87.80
24522;DHT22;12680;57.804;12.190;2023-07-28T13:20:18;22.50;87.80
24522;DHT22;12680;57.804;12.190;2023-07-28T13:22:44;22.50;88.00
24522;DHT22;12680;57.804;12.190;2023-07-28T13:25:11;23.10;88.40
24522;DHT22;12680;57.804;12.190;2023-07-28T13:27:38;22.40;88.30
24522;DHT22;12680;57.804;12.190;2023-07-28T13:30:05;22.80;88.80
24522;DHT22;12680;57.804;12.190;2023-07-28T13:32:31;22.30;88.20
24522;DHT22;12680;57.804;12.190;2023-07-28T13:34:58;23.30;89.80
24522;DHT22;12680;57.804;12.190;2023-07-28T13:37:25;23.30;90.00
24522;DHT22;12680;57.804;12.190;2023-07-28T13:39:51;22.20;89.40
24522;DHT22;12680;57.804;12.190;2023-07-28T13:42:19;22.10;89.70
24522;DHT22;12680;57.804;12.190;2023-07-28T13:44:45;22.00;89.90
24522;DHT22;12680;57.804;12.190;2023-07-28T13:47:24;22.20;90.00
24522;DHT22;12680;57.804;12.190;2023-07-28T13:49:51;22.10;89.90
24522;DHT22;12680;57.804;12.190;2023-07-28T13:52:18;22.60;90.10
24522;DHT22;12680;57.804;12.190;2023-07-28T13:54:47;22.80;90.00
24522;DHT22;12680;57.804;12.190;2023-07-28T13:57:18;22.10;89.70
24522;DHT22;12680;57.804;12.190;2023-07-28T13:59:45;22.70;90.10
24522;DHT22;12680;57.804;12.190;2023-07-28T14:02:11;23.30;90.20
24522;DHT22;12680;57.804;12.190;2023-07-28T14:04:39;22.20;89.60
24522;DHT22;12680;57.804;12.190;2023-07-28T14:07:06;22.40;89.60
24522;DHT22;12680;57.804;12.190;2023-07-28T14:09:33;22.40;88.20
24522;DHT22;12680;57.804;12.190;2023-07-28T14:11:59;22.10;88.40
24522;DHT22;12680;57.804;12.190;2023-07-28T14:14:26;22.20;89.20
24522;DHT22;12680;57.804;12.190;2023-07-28T14:16:53;22.10;90.20
24522;DHT22;12680;57.804;12.190;2023-07-28T14:19:19;23.30;90.30
24522;DHT22;12680;57.804;12.190;2023-07-28T14:21:46;22.40;89.50
24522;DHT22;12680;57.804;12.190;2023-07-28T14:24:13;23.30;89.00
24522;DHT22;12680;57.804;12.190;2023-07-28T14:26:39;22.40;88.20
24522;DHT22;12680;57.804;12.190;2023-07-28T14:29:06;22.30;88.60
24522;DHT22;12680;57.804;12.190;2023-07-28T14:31:33;22.30;88.90
24522;DHT22;12680;57.804;12.190;2023-07-28T14:34:00;22.30;88.90
24522;DHT22;12680;57.804;12.190;2023-07-28T14:36:27;24.60;90.20
24522;DHT22;12680;57.804;12.190;2023-07-28T14:38:54;22.40;89.50
24522;DHT22;12680;57.804;12.190;2023-07-28T14:41:23;22.90;89.90
24522;DHT22;12680;57.804;12.190;2023-07-28T14:43:51;22.60;89.60
24522;DHT22;12680;57.804;12.190;2023-07-28T14:46:18;22.70;89.60
24522;DHT22;12680;57.804;12.190;2023-07-28T14:48:46;22.70;89.50
24522;DHT22;12680;57.804;12.190;2023-07-28T14:51:13;23.40;89.40
24522;DHT22;12680;57.804;12.190;2023-07-28T14:53:39;22.60;89.00
24522;DHT22;12680;57.804;12.190;2023-07-28T14:56:06;23.70;90.00
24522;DHT22;12680;57.804;12.190;2023-07-28T14:58:33;22.60;90.00
24522;DHT22;12680;57.804;12.190;2023-07-28T15:01:00;22.70;90.10
24522;DHT22;12680;57.804;12.190;2023-07-28T15:03:28;24.90;90.50
24522;DHT22;12680;57.804;12.190;2023-07-28T15:05:55;24.10;90.20
24522;DHT22;12680;57.804;12.190;2023-07-28T15:08:22;22.90;90.20
24522;DHT22;12680;57.804;12.190;2023-07-28T15:10:48;23.80;90.40
24522;DHT22;12680;57.804;12.190;2023-07-28T15:13:15;22.80;90.00
24522;DHT22;12680;57.804;12.190;2023-07-28T15:15:42;24.00;90.40
24522;DHT22;12680;57.804;12.190;2023-07-28T15:18:09;22.90;90.00
24522;DHT22;12680;57.804;12.190;2023-07-28T15:20:36;23.00;90.00
24522;DHT22;12680;57.804;12.190;2023-07-28T15:23:03;23.70;90.20
24522;DHT22;12680;57.804;12.190;2023-07-28T15:25:30;23.50;89.70
24522;DHT22;12680;57.804;12.190;2023-07-28T15:27:56;24.00;89.30
24522;DHT22;12680;57.804;12.190;2023-07-28T15:30:23;23.50;89.00
24522;DHT22;12680;57.804;12.190;2023-07-28T15:32:50;23.30;88.50